Zataženo s lehkým deštěm
Zataženo s lehkým deštěm
Zataženo s lehkým deštěm
Zataženo s lehkým deštěm
Zataženo s lehkým deštěm
Spojeno s přeháňkami
Polojasno
(°C)
(°C)
ZJZ
ZJZ
ZJZ
Z
JZ
ZJZ
Z
(km/h)
16-28
16-28
15-27
13-31
12-28
11-23
9-22
(mm)
0.8
0.9
1.1
0.4
0.3
0.1
0
(%)
69
86
87
77
65
59
54

Sluneční výška

/ 48.9°
sun-icon
UV 1
06:01
20:38
Úplněk (186°)
21:39
06:00

METAR pro Bordenau (ETNW)

Čas Podmínky Teplota/
Rosný bod
Vítr Viditelnost Počasí Oblaky Tlak Změna Nezpracované
MVFR 8°C / 1°C 220º 11kt 6000m Light Showers Rain 3.00mm precipitation Broken Clouds 2000ft
Broken Clouds 4000ft
1004 Temporary: YLO ETNW 241130Z 22011KT 6000 -SHRA BKN020CB BKN040 08/01 Q1004 WHT BLU TEMPO YLO
VFR 8°C / 1°C 230º 12kt 9700m - Scattered Clouds 2000ft
Broken Clouds 7000ft
1004 Temporary: YLO ETNW 241105Z 23012KT 9999 SCT020CB BKN070 08/01 Q1004 BLU BLU TEMPO YLO
MVFR 7°C / 2°C 220º 13kt 9700m - Scattered Clouds 1700ft
Broken Clouds 2000ft
1004 Temporary: Hail . ETNW 241020Z 22013KT 9999 SCT017 BKN020 07/02 Q1004 WHT BLU TEMPO GRN
MVFR 6°C / 2°C 230º 11kt 9700m - Scattered Clouds 1200ft
Broken Clouds 1700ft
1005 Temporary: Hail . ETNW 240920Z 23011KT 9999 SCT012 BKN017 06/02 Q1005 WHT BLU TEMPO GRN
MVFR 5°C / 2°C 230º 9kt 9700m - Scattered Clouds 1200ft
Broken Clouds 1500ft
1005 Temporary: Hail . ETNW 240820Z 23009KT 9999 SCT012 BKN015 05/02 Q1005 WHT BLU TEMPO GRN
MVFR 5°C / 2°C 250º 12kt 9700m Light Rain 1.00mm precipitation Broken Clouds 1700ft
Broken Clouds 7000ft
1005 Temporary: Hail . ETNW 240720Z 25012KT 9999 -RA BKN017 BKN070 05/02 Q1005 WHT BLU TEMPO GRN
MVFR 5°C / 2°C 240º 10kt 9700m - Few Clouds 1000ft
Broken Clouds 1700ft
Broken Clouds 7000ft
1006 Temporary: Hail . ETNW 240620Z 24010KT 9999 FEW010 BKN017 BKN070 05/02 Q1006 WHT BLU TEMPO GRN
MVFR 4°C / 2°C 240º 8kt 9700m - Few Clouds 1000ft
Broken Clouds 1700ft
Broken Clouds 7000ft
1006 Temporary: Hail . ETNW 240545Z 24008KT 9999 FEW010 BKN017 BKN070 04/02 Q1006 WHT BLU TEMPO GRN
VFR 4°C / 2°C 240º 9kt 9700m - Few Clouds 1000ft
Scattered Clouds 1900ft
Broken Clouds 7000ft
1006 Temporary: Hail . ETNW 240520Z 24009KT 9999 FEW010 SCT019 BKN070 04/02 Q1006 BLU BLU TEMPO GRN
VFR 4°C / 2°C 240º 7kt 9700m - Few Clouds 1000ft
Broken Clouds 7000ft
1007 Temporary: Hail . ETNW 240420Z 24007KT 9999 FEW010 BKN070 04/02 Q1007 BLU BLU TEMPO GRN
VFR 4°C / 3°C 250º 8kt 9700m Light Rain 1.00mm precipitation Few Clouds 1000ft
Scattered Clouds 5000ft
Broken Clouds 6000ft
1007 - ETNW 240320Z 25008KT 9999 -RA FEW010 SCT050 BKN060 04/03 Q1007 BLU
VFR 4°C / 3°C 250º 7kt 9700m - Few Clouds 1000ft
Broken Clouds 6000ft
1008 - ETNW 240220Z 25007KT 9999 FEW010 BKN060 04/03 Q1008 BLU
VFR 4°C / 3°C 250º 8kt 9700m - Few Clouds 1100ft
Broken Clouds 6000ft
1008 - ETNW 240120Z 25008KT 9999 FEW011 BKN060 04/03 Q1008 BLU
VFR 4°C / 3°C 240º 9kt 9700m - Few Clouds 1000ft
Broken Clouds 4500ft
1009 - ETNW 240050Z 24009KT 9999 FEW010 BKN045 04/03 Q1009 BLU
MVFR 4°C / 3°C 240º 9kt 9700m Light Drizzle Light Rain 0.20mm precipitation Scattered Clouds 1000ft
Broken Clouds 1800ft
1009 - ETNW 240020Z 24009KT 9999 -DZRA SCT010 BKN018 04/03 Q1009 WHT
MVFR 4°C / 3°C 230º 9kt 6000m Light Drizzle Light Rain 0.20mm precipitation Few Clouds 800ft
Broken Clouds 1400ft
1009 - ETNW 240000Z 23009KT 6000 -DZRA FEW008 BKN014 04/03 Q1009 GRN
MVFR 4°C / 3°C 230º 10kt 9700m Light Rain Light Drizzle 0.20mm precipitation Broken Clouds 1800ft 1010 - ETNW 232320Z 23010KT 9999 -RADZ BKN018 04/03 Q1010 WHT
MVFR 5°C / 3°C 230º 9kt 8000m Light Rain Light Drizzle 0.20mm precipitation Broken Clouds 2300ft 1010 - ETNW 232300Z 23009KT 8000 -RADZ BKN023 05/03 Q1010 WHT
MVFR 5°C / 2°C 240º 6kt 9700m Light Rain 1.00mm precipitation Broken Clouds 3000ft 1011 - ETNW 232220Z 24006KT 9999 -RA BKN030 05/02 Q1011 BLU
VFR 7°C / 1°C 270º 11kt 9700m Light Rain 1.00mm precipitation Few Clouds 2700ft
Broken Clouds 4000ft
1011 - ETNW 232120Z 27011KT 9999 -RA FEW027 BKN040 07/01 Q1011 BLU
VFR 7°C / -1°C 260º 7kt 9700m - Few Clouds 2000ft
Scattered Clouds 3000ft
Broken Clouds 5000ft
1012 - ETNW 232020Z 26007KT 9999 FEW020 SCT030 BKN050 07/M01 Q1012 BLU
VFR 8°C / -2°C 200º 6kt 9700m - Broken Clouds 6500ft 1012 - ETNW 231920Z 20006KT 9999 BKN065 08/M02 Q1012 BLU
VFR 8°C / -2°C 200º 5kt 9700m - Broken Clouds 6500ft 1012 - ETNW 231905Z 20005KT 9999 BKN065 08/M02 Q1012 BLU FCST CNL
VFR 8°C / -2°C 230º 6kt 9700m - Few Clouds 6000ft
Scattered Clouds 7000ft
Broken Clouds 12000ft
1013 Temporary: blowing . ETNW 231820Z 23006KT 9999 FEW060 SCT070 BKN120 08/M02 Q1013 BLU BLU+ TEMPO BLU

MVFR

8°C / 1°C

[Víc]
Vítr 220º 11kt
Viditelnost 6000m
Počasí Light Showers Rain 3.00mm precipitation
Oblaky Broken Clouds 2000ft
Broken Clouds 4000ft
Tlak 1004
Změna Temporary: YLO
Nezpracované ETNW 241130Z 22011KT 6000 -SHRA BKN020CB BKN040 08/01 Q1004 WHT BLU TEMPO YLO

VFR

8°C / 1°C

[Víc]
Vítr 230º 12kt
Viditelnost 9700m
Počasí -
Oblaky Scattered Clouds 2000ft
Broken Clouds 7000ft
Tlak 1004
Změna Temporary: YLO
Nezpracované ETNW 241105Z 23012KT 9999 SCT020CB BKN070 08/01 Q1004 BLU BLU TEMPO YLO

MVFR

7°C / 2°C

[Víc]
Vítr 220º 13kt
Viditelnost 9700m
Počasí -
Oblaky Scattered Clouds 1700ft
Broken Clouds 2000ft
Tlak 1004
Změna Temporary: Hail .
Nezpracované ETNW 241020Z 22013KT 9999 SCT017 BKN020 07/02 Q1004 WHT BLU TEMPO GRN

MVFR

6°C / 2°C

[Víc]
Vítr 230º 11kt
Viditelnost 9700m
Počasí -
Oblaky Scattered Clouds 1200ft
Broken Clouds 1700ft
Tlak 1005
Změna Temporary: Hail .
Nezpracované ETNW 240920Z 23011KT 9999 SCT012 BKN017 06/02 Q1005 WHT BLU TEMPO GRN

MVFR

5°C / 2°C

[Víc]
Vítr 230º 9kt
Viditelnost 9700m
Počasí -
Oblaky Scattered Clouds 1200ft
Broken Clouds 1500ft
Tlak 1005
Změna Temporary: Hail .
Nezpracované ETNW 240820Z 23009KT 9999 SCT012 BKN015 05/02 Q1005 WHT BLU TEMPO GRN

MVFR

5°C / 2°C

[Víc]
Vítr 250º 12kt
Viditelnost 9700m
Počasí Light Rain 1.00mm precipitation
Oblaky Broken Clouds 1700ft
Broken Clouds 7000ft
Tlak 1005
Změna Temporary: Hail .
Nezpracované ETNW 240720Z 25012KT 9999 -RA BKN017 BKN070 05/02 Q1005 WHT BLU TEMPO GRN

MVFR

5°C / 2°C

[Víc]
Vítr 240º 10kt
Viditelnost 9700m
Počasí -
Oblaky Few Clouds 1000ft
Broken Clouds 1700ft
Broken Clouds 7000ft
Tlak 1006
Změna Temporary: Hail .
Nezpracované ETNW 240620Z 24010KT 9999 FEW010 BKN017 BKN070 05/02 Q1006 WHT BLU TEMPO GRN

MVFR

4°C / 2°C

[Víc]
Vítr 240º 8kt
Viditelnost 9700m
Počasí -
Oblaky Few Clouds 1000ft
Broken Clouds 1700ft
Broken Clouds 7000ft
Tlak 1006
Změna Temporary: Hail .
Nezpracované ETNW 240545Z 24008KT 9999 FEW010 BKN017 BKN070 04/02 Q1006 WHT BLU TEMPO GRN

VFR

4°C / 2°C

[Víc]
Vítr 240º 9kt
Viditelnost 9700m
Počasí -
Oblaky Few Clouds 1000ft
Scattered Clouds 1900ft
Broken Clouds 7000ft
Tlak 1006
Změna Temporary: Hail .
Nezpracované ETNW 240520Z 24009KT 9999 FEW010 SCT019 BKN070 04/02 Q1006 BLU BLU TEMPO GRN

VFR

4°C / 2°C

[Víc]
Vítr 240º 7kt
Viditelnost 9700m
Počasí -
Oblaky Few Clouds 1000ft
Broken Clouds 7000ft
Tlak 1007
Změna Temporary: Hail .
Nezpracované ETNW 240420Z 24007KT 9999 FEW010 BKN070 04/02 Q1007 BLU BLU TEMPO GRN

VFR

4°C / 3°C

[Víc]
Vítr 250º 8kt
Viditelnost 9700m
Počasí Light Rain 1.00mm precipitation
Oblaky Few Clouds 1000ft
Scattered Clouds 5000ft
Broken Clouds 6000ft
Tlak 1007
Změna -
Nezpracované ETNW 240320Z 25008KT 9999 -RA FEW010 SCT050 BKN060 04/03 Q1007 BLU

VFR

4°C / 3°C

[Víc]
Vítr 250º 7kt
Viditelnost 9700m
Počasí -
Oblaky Few Clouds 1000ft
Broken Clouds 6000ft
Tlak 1008
Změna -
Nezpracované ETNW 240220Z 25007KT 9999 FEW010 BKN060 04/03 Q1008 BLU

VFR

4°C / 3°C

[Víc]
Vítr 250º 8kt
Viditelnost 9700m
Počasí -
Oblaky Few Clouds 1100ft
Broken Clouds 6000ft
Tlak 1008
Změna -
Nezpracované ETNW 240120Z 25008KT 9999 FEW011 BKN060 04/03 Q1008 BLU

VFR

4°C / 3°C

[Víc]
Vítr 240º 9kt
Viditelnost 9700m
Počasí -
Oblaky Few Clouds 1000ft
Broken Clouds 4500ft
Tlak 1009
Změna -
Nezpracované ETNW 240050Z 24009KT 9999 FEW010 BKN045 04/03 Q1009 BLU

MVFR

4°C / 3°C

[Víc]
Vítr 240º 9kt
Viditelnost 9700m
Počasí Light Drizzle Light Rain 0.20mm precipitation
Oblaky Scattered Clouds 1000ft
Broken Clouds 1800ft
Tlak 1009
Změna -
Nezpracované ETNW 240020Z 24009KT 9999 -DZRA SCT010 BKN018 04/03 Q1009 WHT

MVFR

4°C / 3°C

[Víc]
Vítr 230º 9kt
Viditelnost 6000m
Počasí Light Drizzle Light Rain 0.20mm precipitation
Oblaky Few Clouds 800ft
Broken Clouds 1400ft
Tlak 1009
Změna -
Nezpracované ETNW 240000Z 23009KT 6000 -DZRA FEW008 BKN014 04/03 Q1009 GRN

MVFR

4°C / 3°C

[Víc]
Vítr 230º 10kt
Viditelnost 9700m
Počasí Light Rain Light Drizzle 0.20mm precipitation
Oblaky Broken Clouds 1800ft
Tlak 1010
Změna -
Nezpracované ETNW 232320Z 23010KT 9999 -RADZ BKN018 04/03 Q1010 WHT

MVFR

5°C / 3°C

[Víc]
Vítr 230º 9kt
Viditelnost 8000m
Počasí Light Rain Light Drizzle 0.20mm precipitation
Oblaky Broken Clouds 2300ft
Tlak 1010
Změna -
Nezpracované ETNW 232300Z 23009KT 8000 -RADZ BKN023 05/03 Q1010 WHT

MVFR

5°C / 2°C

[Víc]
Vítr 240º 6kt
Viditelnost 9700m
Počasí Light Rain 1.00mm precipitation
Oblaky Broken Clouds 3000ft
Tlak 1011
Změna -
Nezpracované ETNW 232220Z 24006KT 9999 -RA BKN030 05/02 Q1011 BLU

VFR

7°C / 1°C

[Víc]
Vítr 270º 11kt
Viditelnost 9700m
Počasí Light Rain 1.00mm precipitation
Oblaky Few Clouds 2700ft
Broken Clouds 4000ft
Tlak 1011
Změna -
Nezpracované ETNW 232120Z 27011KT 9999 -RA FEW027 BKN040 07/01 Q1011 BLU

VFR

7°C / -1°C

[Víc]
Vítr 260º 7kt
Viditelnost 9700m
Počasí -
Oblaky Few Clouds 2000ft
Scattered Clouds 3000ft
Broken Clouds 5000ft
Tlak 1012
Změna -
Nezpracované ETNW 232020Z 26007KT 9999 FEW020 SCT030 BKN050 07/M01 Q1012 BLU

VFR

8°C / -2°C

[Víc]
Vítr 200º 6kt
Viditelnost 9700m
Počasí -
Oblaky Broken Clouds 6500ft
Tlak 1012
Změna -
Nezpracované ETNW 231920Z 20006KT 9999 BKN065 08/M02 Q1012 BLU

VFR

8°C / -2°C

[Víc]
Vítr 200º 5kt
Viditelnost 9700m
Počasí -
Oblaky Broken Clouds 6500ft
Tlak 1012
Změna -
Nezpracované ETNW 231905Z 20005KT 9999 BKN065 08/M02 Q1012 BLU FCST CNL

VFR

8°C / -2°C

[Víc]
Vítr 230º 6kt
Viditelnost 9700m
Počasí -
Oblaky Few Clouds 6000ft
Scattered Clouds 7000ft
Broken Clouds 12000ft
Tlak 1013
Změna Temporary: blowing .
Nezpracované ETNW 231820Z 23006KT 9999 FEW060 SCT070 BKN120 08/M02 Q1013 BLU BLU+ TEMPO BLU

TAF pro Bordenau (ETNW)

From till


From till Wind 240º 10kt. Visibility 9700m. Scattered Clouds 1500ft. Broken Clouds 3000ft.
Temporarly from till Wind 250º 15kt. Gust 25kt. Visibility 3000m. Thunderstorm Rain . Broken Clouds 500ft.
Temporarly from till Wind 250º 10kt. Gust 20kt. Visibility 4000m. Showers Rain . Broken Clouds 1200ft.
With 30% probability, from till Wind 250º 15kt. Gust 25kt. Visibility 3000m. Thunderstorm Rain . Broken Clouds 500ft.
Temporarly from till Wind 290º 10kt. Visibility 4000m. Showers Rain . Broken Clouds 1200ft.
Temporarly from till Wind 270º 3kt. Visibility 3000m. Mist . Broken Clouds 500ft.
Temporarly from till Wind 270º 10kt. Gust 20kt. Visibility 4000m. Light Rain . Broken Clouds 1000ft.

Nezpracované: TAF AMD ETNW 241108Z 2411/2511 24010KT 9999 NSW SCT015 BKN030 TEMPO 2411/2413 25015G25KT 3000 TSRA BKN005CB TEMPO 2413/2417 25010G20KT 4000 SHRA BKN012CB PROB30 2413/2417 25015G25KT 3000 TSRA BKN005CB TEMPO 2417/2502 29010KT 4000 SHRA BKN012TCU TEMPO 2502/2507 27003KT 3000 BR BKN005 TEMPO 2507/2511 27010G20KT 4000 -RA BKN010

rainNOW: Předpověď deště pro Bordenau a okolí (v okruhu 25 km)

0.2 mm
0.3 mm
0.3 mm
0.1 mm
0.0 mm
0.1 mm
0.1 mm
0.1 mm
0.1 mm
0.2 mm
0.7 mm
0.5 mm

Radar a krátkodobá předpověď srážek pro Bordenau

Mrholení
Slabé
Střední
Silné
Velmi silné
Kroupy

Značka lokality je umístněna na Bordenau. Tato animace zobrazuje srážkový radar pro vybraný časový rozsah a také 2h předpověď. Oranžové křížky označují blesky. Údaje poskytl nowcast.de (k dispozici v USA, Evropě a Austrálii). Mrholení nebo slabé sněžení může být pro radar neviditelné. Intenzita srážek je barevně označena od tyrkysové po červenou.

Aktuální snímky ze satelitu a srážky pro Bordenau, Německo

Značka polohy je umístěna na Bordenau. [Víc]

Satelitní snímek v reálném čase kombinuje viditelné světlo během dne s infračerveným zářením během noci. V noci není obraz tmavý, protože infračervené záření dokáže detekovat teplotní rozdíly. Nízká oblačnost a mlha se bohužel těžko odlišují od pozemních teplot, a proto mohou být během noci téměř neviditelné. Satelitní snímky z Meteosatu pro Evropu jsou aktualizovány v reálném čase každých 5 minut. Snímky z GOES-16/GOES-17 (Severní a Jižní Amerika) a Himawari (Asie) jsou aktualizovány) každých 10 minut.

Srážky se odhadují z radarů a družic. Odhady srážek ze satelitů jsou v noci méně přesné než ve dne.

© 2024 meteoblue, NOAA Satellites GOES-16 and EUMETSAT. Údaje o blescích poskytuje nowcast.

Zpět nahoru
×
Dobrý den,
zdá se, že používáte blokovač reklam.

Reklama je nezbytná pro udržování našich bezplatných webových stránek s jedinečnými detaily a přesností.

Prosím, zapište www.meteoblue.com do svého blokovače reklam nebo zvažte nákup některého z našich produktů:

Máte již předplatné?
Pak se prosím přihlaste.